sensor_id;sensor_type;location;lat;lon;timestamp;P1;durP1;ratioP1;P2;durP2;ratioP2
34876;SDS011;21086;44.780;17.194;2023-07-09T00:02:16;6.32;;;3.95;;
34876;SDS011;21086;44.780;17.194;2023-07-09T00:04:44;7.03;;;3.95;;
34876;SDS011;21086;44.780;17.194;2023-07-09T00:07:15;5.97;;;3.58;;
34876;SDS011;21086;44.780;17.194;2023-07-09T00:09:50;6.53;;;3.75;;
34876;SDS011;21086;44.780;17.194;2023-07-09T00:12:17;7.85;;;4.15;;
34876;SDS011;21086;44.780;17.194;2023-07-09T00:14:44;5.75;;;3.97;;
34876;SDS011;21086;44.780;17.194;2023-07-09T00:17:18;6.68;;;3.55;;
34876;SDS011;21086;44.780;17.194;2023-07-09T00:20:00;7.50;;;4.07;;
34876;SDS011;21086;44.780;17.194;2023-07-09T00:22:27;5.72;;;3.72;;
34876;SDS011;21086;44.780;17.194;2023-07-09T00:24:54;4.47;;;3.42;;
34876;SDS011;21086;44.780;17.194;2023-07-09T00:27:24;6.22;;;4.05;;
34876;SDS011;21086;44.780;17.194;2023-07-09T00:29:54;5.65;;;3.88;;
34876;SDS011;21086;44.780;17.194;2023-07-09T00:32:21;5.75;;;4.22;;
34876;SDS011;21086;44.780;17.194;2023-07-09T00:34:48;5.45;;;3.78;;
34876;SDS011;21086;44.780;17.194;2023-07-09T00:37:16;5.70;;;4.25;;
34876;SDS011;21086;44.780;17.194;2023-07-09T00:39:46;5.70;;;4.50;;
34876;SDS011;21086;44.780;17.194;2023-07-09T00:42:18;6.50;;;4.10;;
34876;SDS011;21086;44.780;17.194;2023-07-09T00:44:50;5.00;;;4.22;;
34876;SDS011;21086;44.780;17.194;2023-07-09T00:47:21;5.07;;;3.92;;
34876;SDS011;21086;44.780;17.194;2023-07-09T00:49:55;5.65;;;4.82;;
34876;SDS011;21086;44.780;17.194;2023-07-09T00:52:39;10.02;;;4.47;;
34876;SDS011;21086;44.780;17.194;2023-07-09T00:55:15;5.13;;;4.18;;
34876;SDS011;21086;44.780;17.194;2023-07-09T00:57:46;8.38;;;3.92;;
34876;SDS011;21086;44.780;17.194;2023-07-09T01:00:24;4.60;;;3.58;;
34876;SDS011;21086;44.780;17.194;2023-07-09T01:02:55;4.25;;;3.42;;
34876;SDS011;21086;44.780;17.194;2023-07-09T01:05:24;5.00;;;4.18;;
34876;SDS011;21086;44.780;17.194;2023-07-09T01:07:51;5.38;;;4.25;;
34876;SDS011;21086;44.780;17.194;2023-07-09T01:10:20;4.80;;;3.60;;
34876;SDS011;21086;44.780;17.194;2023-07-09T01:12:47;4.70;;;3.88;;
34876;SDS011;21086;44.780;17.194;2023-07-09T01:15:16;7.03;;;3.75;;
34876;SDS011;21086;44.780;17.194;2023-07-09T01:17:43;6.50;;;4.50;;
34876;SDS011;21086;44.780;17.194;2023-07-09T01:20:16;5.88;;;3.92;;
34876;SDS011;21086;44.780;17.194;2023-07-09T01:22:48;5.30;;;3.92;;
34876;SDS011;21086;44.780;17.194;2023-07-09T01:25:16;5.25;;;4.20;;
34876;SDS011;21086;44.780;17.194;2023-07-09T01:27:45;5.22;;;4.28;;
34876;SDS011;21086;44.780;17.194;2023-07-09T01:30:16;5.82;;;4.47;;
34876;SDS011;21086;44.780;17.194;2023-07-09T01:32:49;8.55;;;4.72;;
34876;SDS011;21086;44.780;17.194;2023-07-09T01:35:19;6.15;;;4.80;;
34876;SDS011;21086;44.780;17.194;2023-07-09T01:37:48;4.78;;;4.20;;
34876;SDS011;21086;44.780;17.194;2023-07-09T01:40:17;8.82;;;4.80;;
34876;SDS011;21086;44.780;17.194;2023-07-09T01:42:56;6.45;;;4.88;;
34876;SDS011;21086;44.780;17.194;2023-07-09T01:45:24;8.52;;;5.18;;
34876;SDS011;21086;44.780;17.194;2023-07-09T01:47:52;7.95;;;4.57;;
34876;SDS011;21086;44.780;17.194;2023-07-09T01:50:20;5.43;;;4.07;;
34876;SDS011;21086;44.780;17.194;2023-07-09T01:52:51;5.40;;;3.72;;
34876;SDS011;21086;44.780;17.194;2023-07-09T01:55:20;5.75;;;3.60;;
34876;SDS011;21086;44.780;17.194;2023-07-09T01:57:48;5.47;;;3.90;;
34876;SDS011;21086;44.780;17.194;2023-07-09T02:00:17;6.50;;;3.38;;
34876;SDS011;21086;44.780;17.194;2023-07-09T02:02:48;4.90;;;3.80;;
34876;SDS011;21086;44.780;17.194;2023-07-09T02:05:17;4.47;;;3.55;;
34876;SDS011;21086;44.780;17.194;2023-07-09T02:07:46;5.93;;;3.25;;
34876;SDS011;21086;44.780;17.194;2023-07-09T02:10:15;4.13;;;3.47;;
34876;SDS011;21086;44.780;17.194;2023-07-09T02:12:44;3.80;;;3.25;;
34876;SDS011;21086;44.780;17.194;2023-07-09T02:15:12;5.53;;;3.70;;
34876;SDS011;21086;44.780;17.194;2023-07-09T02:17:39;6.97;;;3.80;;
34876;SDS011;21086;44.780;17.194;2023-07-09T02:20:07;5.00;;;3.35;;
34876;SDS011;21086;44.780;17.194;2023-07-09T02:22:36;5.00;;;3.75;;
34876;SDS011;21086;44.780;17.194;2023-07-09T02:25:04;3.97;;;3.00;;
34876;SDS011;21086;44.780;17.194;2023-07-09T02:27:33;5.45;;;3.83;;
34876;SDS011;21086;44.780;17.194;2023-07-09T02:30:02;4.68;;;3.35;;
34876;SDS011;21086;44.780;17.194;2023-07-09T02:32:31;4.78;;;3.55;;
34876;SDS011;21086;44.780;17.194;2023-07-09T02:34:58;4.43;;;3.45;;
34876;SDS011;21086;44.780;17.194;2023-07-09T02:37:26;3.85;;;3.30;;
34876;SDS011;21086;44.780;17.194;2023-07-09T02:39:53;5.32;;;3.45;;
34876;SDS011;21086;44.780;17.194;2023-07-09T02:42:21;4.38;;;3.28;;
34876;SDS011;21086;44.780;17.194;2023-07-09T02:44:49;7.22;;;3.67;;
34876;SDS011;21086;44.780;17.194;2023-07-09T02:47:17;7.50;;;4.10;;
34876;SDS011;21086;44.780;17.194;2023-07-09T02:49:44;5.00;;;3.40;;
34876;SDS011;21086;44.780;17.194;2023-07-09T02:52:12;5.35;;;3.85;;
34876;SDS011;21086;44.780;17.194;2023-07-09T02:54:39;9.55;;;3.60;;
34876;SDS011;21086;44.780;17.194;2023-07-09T02:57:06;8.82;;;3.75;;
34876;SDS011;21086;44.780;17.194;2023-07-09T02:59:34;9.27;;;4.38;;
34876;SDS011;21086;44.780;17.194;2023-07-09T03:02:01;4.22;;;3.40;;
34876;SDS011;21086;44.780;17.194;2023-07-09T03:04:28;6.43;;;3.83;;
34876;SDS011;21086;44.780;17.194;2023-07-09T03:06:57;7.65;;;4.18;;
34876;SDS011;21086;44.780;17.194;2023-07-09T03:09:26;6.88;;;4.13;;
34876;SDS011;21086;44.780;17.194;2023-07-09T03:11:54;6.03;;;3.95;;
34876;SDS011;21086;44.780;17.194;2023-07-09T03:14:22;5.13;;;4.13;;
34876;SDS011;21086;44.780;17.194;2023-07-09T03:16:49;5.82;;;4.60;;
34876;SDS011;21086;44.780;17.194;2023-07-09T03:19:16;6.22;;;4.93;;
34876;SDS011;21086;44.780;17.194;2023-07-09T03:21:43;7.05;;;4.43;;
34876;SDS011;21086;44.780;17.194;2023-07-09T03:24:10;5.95;;;4.00;;
34876;SDS011;21086;44.780;17.194;2023-07-09T03:26:37;7.82;;;3.97;;
34876;SDS011;21086;44.780;17.194;2023-07-09T03:29:04;6.07;;;4.07;;
34876;SDS011;21086;44.780;17.194;2023-07-09T03:31:31;6.97;;;4.20;;
34876;SDS011;21086;44.780;17.194;2023-07-09T03:34:01;5.20;;;4.15;;
34876;SDS011;21086;44.780;17.194;2023-07-09T03:36:29;6.13;;;4.50;;
34876;SDS011;21086;44.780;17.194;2023-07-09T03:38:56;4.20;;;3.60;;
34876;SDS011;21086;44.780;17.194;2023-07-09T03:41:24;8.60;;;4.70;;
34876;SDS011;21086;44.780;17.194;2023-07-09T03:43:51;5.00;;;3.80;;
34876;SDS011;21086;44.780;17.194;2023-07-09T03:46:19;5.40;;;4.30;;
34876;SDS011;21086;44.780;17.194;2023-07-09T03:48:47;4.53;;;3.80;;
34876;SDS011;21086;44.780;17.194;2023-07-09T03:51:16;6.05;;;4.10;;
34876;SDS011;21086;44.780;17.194;2023-07-09T03:53:43;7.20;;;3.85;;
34876;SDS011;21086;44.780;17.194;2023-07-09T03:56:11;5.70;;;3.90;;
34876;SDS011;21086;44.780;17.194;2023-07-09T03:58:38;4.18;;;3.22;;
34876;SDS011;21086;44.780;17.194;2023-07-09T04:01:05;5.18;;;3.60;;
34876;SDS011;21086;44.780;17.194;2023-07-09T04:03:32;5.18;;;3.80;;
34876;SDS011;21086;44.780;17.194;2023-07-09T04:05:59;4.18;;;3.55;;
34876;SDS011;21086;44.780;17.194;2023-07-09T04:08:27;4.88;;;3.60;;
34876;SDS011;21086;44.780;17.194;2023-07-09T04:10:58;5.60;;;3.65;;
34876;SDS011;21086;44.780;17.194;2023-07-09T04:13:29;4.75;;;3.05;;
34876;SDS011;21086;44.780;17.194;2023-07-09T04:15:56;8.40;;;3.75;;
34876;SDS011;21086;44.780;17.194;2023-07-09T04:18:24;4.97;;;3.42;;
34876;SDS011;21086;44.780;17.194;2023-07-09T04:20:51;4.90;;;3.53;;
34876;SDS011;21086;44.780;17.194;2023-07-09T04:23:19;4.55;;;3.10;;
34876;SDS011;21086;44.780;17.194;2023-07-09T04:25:47;4.63;;;3.78;;
34876;SDS011;21086;44.780;17.194;2023-07-09T04:28:14;4.72;;;3.50;;
34876;SDS011;21086;44.780;17.194;2023-07-09T04:30:49;5.18;;;3.58;;
34876;SDS011;21086;44.780;17.194;2023-07-09T04:33:18;5.38;;;3.47;;
34876;SDS011;21086;44.780;17.194;2023-07-09T04:35:47;4.57;;;3.55;;
34876;SDS011;21086;44.780;17.194;2023-07-09T04:38:15;6.22;;;3.67;;
34876;SDS011;21086;44.780;17.194;2023-07-09T04:40:42;3.40;;;2.80;;
34876;SDS011;21086;44.780;17.194;2023-07-09T04:43:09;3.55;;;2.70;;
34876;SDS011;21086;44.780;17.194;2023-07-09T04:45:37;5.03;;;3.72;;
34876;SDS011;21086;44.780;17.194;2023-07-09T04:48:04;4.78;;;3.38;;
34876;SDS011;21086;44.780;17.194;2023-07-09T04:50:32;4.13;;;3.15;;
34876;SDS011;21086;44.780;17.194;2023-07-09T04:52:59;4.40;;;2.90;;
34876;SDS011;21086;44.780;17.194;2023-07-09T04:55:27;3.60;;;3.03;;
34876;SDS011;21086;44.780;17.194;2023-07-09T04:57:54;3.83;;;3.30;;
34876;SDS011;21086;44.780;17.194;2023-07-09T05:00:21;5.18;;;3.42;;
34876;SDS011;21086;44.780;17.194;2023-07-09T05:02:48;4.47;;;3.38;;
34876;SDS011;21086;44.780;17.194;2023-07-09T05:05:16;6.43;;;3.15;;
34876;SDS011;21086;44.780;17.194;2023-07-09T05:07:43;6.55;;;3.70;;
34876;SDS011;21086;44.780;17.194;2023-07-09T05:10:10;4.95;;;3.42;;
34876;SDS011;21086;44.780;17.194;2023-07-09T05:12:46;5.03;;;3.42;;
34876;SDS011;21086;44.780;17.194;2023-07-09T05:15:18;3.97;;;3.17;;
34876;SDS011;21086;44.780;17.194;2023-07-09T05:17:46;8.05;;;3.50;;
34876;SDS011;21086;44.780;17.194;2023-07-09T05:20:14;4.03;;;3.22;;
34876;SDS011;21086;44.780;17.194;2023-07-09T05:22:41;3.65;;;3.17;;
34876;SDS011;21086;44.780;17.194;2023-07-09T05:25:08;8.55;;;3.00;;
34876;SDS011;21086;44.780;17.194;2023-07-09T05:27:36;4.28;;;3.28;;
34876;SDS011;21086;44.780;17.194;2023-07-09T05:30:03;4.20;;;3.45;;
34876;SDS011;21086;44.780;17.194;2023-07-09T05:32:31;5.82;;;3.28;;
34876;SDS011;21086;44.780;17.194;2023-07-09T05:34:58;5.97;;;3.47;;
34876;SDS011;21086;44.780;17.194;2023-07-09T05:37:25;4.53;;;3.40;;
34876;SDS011;21086;44.780;17.194;2023-07-09T05:39:52;4.18;;;3.20;;
34876;SDS011;21086;44.780;17.194;2023-07-09T05:42:20;4.07;;;2.97;;
34876;SDS011;21086;44.780;17.194;2023-07-09T05:44:47;5.55;;;2.90;;
34876;SDS011;21086;44.780;17.194;2023-07-09T05:47:14;5.47;;;3.17;;
34876;SDS011;21086;44.780;17.194;2023-07-09T05:49:42;3.90;;;2.95;;
34876;SDS011;21086;44.780;17.194;2023-07-09T05:52:09;5.18;;;3.10;;
34876;SDS011;21086;44.780;17.194;2023-07-09T05:54:36;4.00;;;2.78;;
34876;SDS011;21086;44.780;17.194;2023-07-09T05:57:03;6.20;;;3.10;;
34876;SDS011;21086;44.780;17.194;2023-07-09T05:59:31;4.75;;;2.95;;
34876;SDS011;21086;44.780;17.194;2023-07-09T06:01:58;4.55;;;2.92;;
34876;SDS011;21086;44.780;17.194;2023-07-09T06:04:27;4.00;;;3.53;;
34876;SDS011;21086;44.780;17.194;2023-07-09T06:06:54;6.22;;;3.20;;
34876;SDS011;21086;44.780;17.194;2023-07-09T06:09:21;4.57;;;3.00;;
34876;SDS011;21086;44.780;17.194;2023-07-09T06:11:48;4.28;;;3.20;;
34876;SDS011;21086;44.780;17.194;2023-07-09T06:14:15;4.45;;;3.40;;
34876;SDS011;21086;44.780;17.194;2023-07-09T06:16:43;3.50;;;2.92;;
34876;SDS011;21086;44.780;17.194;2023-07-09T06:19:10;4.00;;;3.35;;
34876;SDS011;21086;44.780;17.194;2023-07-09T06:21:38;5.88;;;3.30;;
34876;SDS011;21086;44.780;17.194;2023-07-09T06:24:06;3.63;;;3.28;;
34876;SDS011;21086;44.780;17.194;2023-07-09T06:26:34;4.40;;;3.20;;
34876;SDS011;21086;44.780;17.194;2023-07-09T06:29:01;6.57;;;2.97;;
34876;SDS011;21086;44.780;17.194;2023-07-09T06:31:29;4.43;;;3.10;;
34876;SDS011;21086;44.780;17.194;2023-07-09T06:33:56;5.18;;;2.92;;
34876;SDS011;21086;44.780;17.194;2023-07-09T06:36:23;3.92;;;2.67;;
34876;SDS011;21086;44.780;17.194;2023-07-09T06:38:50;7.35;;;2.95;;
34876;SDS011;21086;44.780;17.194;2023-07-09T06:41:17;3.50;;;2.80;;
34876;SDS011;21086;44.780;17.194;2023-07-09T06:43:44;3.78;;;2.83;;
34876;SDS011;21086;44.780;17.194;2023-07-09T06:46:12;4.47;;;3.50;;
34876;SDS011;21086;44.780;17.194;2023-07-09T06:48:40;5.88;;;3.03;;
34876;SDS011;21086;44.780;17.194;2023-07-09T06:51:08;3.78;;;3.03;;
34876;SDS011;21086;44.780;17.194;2023-07-09T06:53:35;3.25;;;2.70;;
34876;SDS011;21086;44.780;17.194;2023-07-09T06:56:03;4.47;;;2.90;;
34876;SDS011;21086;44.780;17.194;2023-07-09T06:58:31;4.82;;;3.53;;
34876;SDS011;21086;44.780;17.194;2023-07-09T07:01:03;4.80;;;3.25;;
34876;SDS011;21086;44.780;17.194;2023-07-09T07:03:31;4.47;;;3.55;;
34876;SDS011;21086;44.780;17.194;2023-07-09T07:06:00;7.22;;;3.55;;
34876;SDS011;21086;44.780;17.194;2023-07-09T07:08:29;4.57;;;3.00;;
34876;SDS011;21086;44.780;17.194;2023-07-09T07:10:57;4.50;;;3.00;;
34876;SDS011;21086;44.780;17.194;2023-07-09T07:13:34;5.15;;;3.10;;
34876;SDS011;21086;44.780;17.194;2023-07-09T07:16:03;3.25;;;2.90;;
34876;SDS011;21086;44.780;17.194;2023-07-09T07:18:32;6.80;;;3.20;;
34876;SDS011;21086;44.780;17.194;2023-07-09T07:21:00;4.00;;;2.88;;
34876;SDS011;21086;44.780;17.194;2023-07-09T07:23:28;4.32;;;2.92;;
34876;SDS011;21086;44.780;17.194;2023-07-09T07:25:55;4.05;;;2.90;;
34876;SDS011;21086;44.780;17.194;2023-07-09T07:28:22;3.13;;;2.80;;
34876;SDS011;21086;44.780;17.194;2023-07-09T07:31:00;4.78;;;3.53;;
34876;SDS011;21086;44.780;17.194;2023-07-09T07:33:28;3.50;;;2.75;;
34876;SDS011;21086;44.780;17.194;2023-07-09T07:35:55;4.55;;;3.17;;
34876;SDS011;21086;44.780;17.194;2023-07-09T07:38:42;3.53;;;2.80;;
34876;SDS011;21086;44.780;17.194;2023-07-09T07:41:09;5.47;;;3.00;;
34876;SDS011;21086;44.780;17.194;2023-07-09T07:43:37;3.50;;;2.80;;
34876;SDS011;21086;44.780;17.194;2023-07-09T07:46:04;5.65;;;3.08;;
34876;SDS011;21086;44.780;17.194;2023-07-09T07:48:33;4.32;;;2.60;;
34876;SDS011;21086;44.780;17.194;2023-07-09T07:51:03;4.72;;;3.10;;
34876;SDS011;21086;44.780;17.194;2023-07-09T07:53:30;5.35;;;3.28;;
34876;SDS011;21086;44.780;17.194;2023-07-09T07:55:58;4.40;;;3.20;;
34876;SDS011;21086;44.780;17.194;2023-07-09T07:58:28;4.88;;;3.25;;
34876;SDS011;21086;44.780;17.194;2023-07-09T08:00:56;4.68;;;2.70;;
34876;SDS011;21086;44.780;17.194;2023-07-09T08:03:23;3.92;;;3.08;;
34876;SDS011;21086;44.780;17.194;2023-07-09T08:05:51;4.13;;;3.33;;
34876;SDS011;21086;44.780;17.194;2023-07-09T08:08:18;5.05;;;3.03;;
34876;SDS011;21086;44.780;17.194;2023-07-09T08:10:46;4.00;;;2.85;;
34876;SDS011;21086;44.780;17.194;2023-07-09T08:13:13;7.88;;;3.17;;
34876;SDS011;21086;44.780;17.194;2023-07-09T08:15:40;4.13;;;3.00;;
34876;SDS011;21086;44.780;17.194;2023-07-09T08:18:07;4.82;;;3.40;;
34876;SDS011;21086;44.780;17.194;2023-07-09T08:20:34;4.32;;;3.35;;
34876;SDS011;21086;44.780;17.194;2023-07-09T08:23:01;3.80;;;2.83;;
34876;SDS011;21086;44.780;17.194;2023-07-09T08:25:28;4.97;;;3.00;;
34876;SDS011;21086;44.780;17.194;2023-07-09T08:27:56;5.30;;;3.10;;
34876;SDS011;21086;44.780;17.194;2023-07-09T08:30:22;4.95;;;3.10;;
34876;SDS011;21086;44.780;17.194;2023-07-09T08:32:49;4.55;;;3.13;;
34876;SDS011;21086;44.780;17.194;2023-07-09T08:35:17;4.03;;;3.08;;
34876;SDS011;21086;44.780;17.194;2023-07-09T08:37:47;3.35;;;2.70;;
34876;SDS011;21086;44.780;17.194;2023-07-09T08:40:15;4.40;;;2.90;;
34876;SDS011;21086;44.780;17.194;2023-07-09T08:42:44;5.13;;;3.10;;
34876;SDS011;21086;44.780;17.194;2023-07-09T08:48:03;4.22;;;2.97;;
34876;SDS011;21086;44.780;17.194;2023-07-09T08:50:39;4.18;;;3.30;;
34876;SDS011;21086;44.780;17.194;2023-07-09T08:53:53;3.40;;;3.00;;
34876;SDS011;21086;44.780;17.194;2023-07-09T08:56:08;4.18;;;2.83;;
34876;SDS011;21086;44.780;17.194;2023-07-09T08:58:36;3.33;;;2.80;;
34876;SDS011;21086;44.780;17.194;2023-07-09T09:01:05;4.93;;;2.45;;
34876;SDS011;21086;44.780;17.194;2023-07-09T09:03:48;7.13;;;2.72;;
34876;SDS011;21086;44.780;17.194;2023-07-09T09:06:21;3.75;;;2.80;;
34876;SDS011;21086;44.780;17.194;2023-07-09T09:14:13;6.28;;;2.40;;
34876;SDS011;21086;44.780;17.194;2023-07-09T09:17:02;4.18;;;3.13;;
34876;SDS011;21086;44.780;17.194;2023-07-09T09:19:37;3.97;;;2.65;;
34876;SDS011;21086;44.780;17.194;2023-07-09T09:22:10;3.47;;;2.55;;
34876;SDS011;21086;44.780;17.194;2023-07-09T09:24:49;3.90;;;2.50;;
34876;SDS011;21086;44.780;17.194;2023-07-09T09:27:29;6.45;;;2.50;;
34876;SDS011;21086;44.780;17.194;2023-07-09T09:29:56;3.70;;;2.58;;
34876;SDS011;21086;44.780;17.194;2023-07-09T09:32:27;3.80;;;2.70;;
34876;SDS011;21086;44.780;17.194;2023-07-09T09:34:56;3.47;;;2.65;;
34876;SDS011;21086;44.780;17.194;2023-07-09T09:39:53;8.43;;;2.72;;
34876;SDS011;21086;44.780;17.194;2023-07-09T09:42:41;3.08;;;2.65;;
34876;SDS011;21086;44.780;17.194;2023-07-09T09:45:11;5.13;;;2.58;;
34876;SDS011;21086;44.780;17.194;2023-07-09T09:47:41;2.97;;;2.20;;
34876;SDS011;21086;44.780;17.194;2023-07-09T09:50:19;3.00;;;2.17;;
34876;SDS011;21086;44.780;17.194;2023-07-09T09:52:48;3.17;;;2.33;;
34876;SDS011;21086;44.780;17.194;2023-07-09T09:55:19;3.47;;;2.67;;
34876;SDS011;21086;44.780;17.194;2023-07-09T09:57:52;4.03;;;2.80;;
34876;SDS011;21086;44.780;17.194;2023-07-09T10:00:22;4.80;;;2.67;;
34876;SDS011;21086;44.780;17.194;2023-07-09T10:03:01;3.95;;;3.13;;
34876;SDS011;21086;44.780;17.194;2023-07-09T10:05:37;3.75;;;2.75;;
34876;SDS011;21086;44.780;17.194;2023-07-09T10:08:22;5.28;;;2.80;;
34876;SDS011;21086;44.780;17.194;2023-07-09T10:11:48;8.65;;;2.38;;
34876;SDS011;21086;44.780;17.194;2023-07-09T10:13:55;6.95;;;2.58;;
34876;SDS011;21086;44.780;17.194;2023-07-09T10:21:54;4.25;;;2.28;;
34876;SDS011;21086;44.780;17.194;2023-07-09T10:30:32;3.38;;;2.30;;
34876;SDS011;21086;44.780;17.194;2023-07-09T10:35:47;4.65;;;2.17;;
34876;SDS011;21086;44.780;17.194;2023-07-09T10:38:20;3.17;;;2.05;;
34876;SDS011;21086;44.780;17.194;2023-07-09T10:40:53;3.70;;;1.80;;
34876;SDS011;21086;44.780;17.194;2023-07-09T10:43:44;2.40;;;1.83;;
34876;SDS011;21086;44.780;17.194;2023-07-09T10:46:24;3.90;;;2.03;;
34876;SDS011;21086;44.780;17.194;2023-07-09T10:48:54;3.03;;;1.90;;
34876;SDS011;21086;44.780;17.194;2023-07-09T10:53:58;2.60;;;1.90;;
34876;SDS011;21086;44.780;17.194;2023-07-09T10:56:51;2.58;;;1.75;;
34876;SDS011;21086;44.780;17.194;2023-07-09T10:59:32;3.40;;;1.92;;
34876;SDS011;21086;44.780;17.194;2023-07-09T11:07:09;3.83;;;2.10;;
34876;SDS011;21086;44.780;17.194;2023-07-09T11:09:41;2.47;;;1.92;;
34876;SDS011;21086;44.780;17.194;2023-07-09T11:12:16;3.67;;;2.13;;
34876;SDS011;21086;44.780;17.194;2023-07-09T11:14:54;5.47;;;2.40;;
34876;SDS011;21086;44.780;17.194;2023-07-09T11:17:28;2.80;;;2.22;;
34876;SDS011;21086;44.780;17.194;2023-07-09T11:19:58;3.85;;;2.22;;
34876;SDS011;21086;44.780;17.194;2023-07-09T11:22:27;2.35;;;1.60;;
34876;SDS011;21086;44.780;17.194;2023-07-09T11:25:13;4.30;;;1.80;;
34876;SDS011;21086;44.780;17.194;2023-07-09T11:27:53;3.20;;;2.35;;
34876;SDS011;21086;44.780;17.194;2023-07-09T11:30:28;3.35;;;2.05;;
34876;SDS011;21086;44.780;17.194;2023-07-09T11:32:56;2.65;;;1.70;;
34876;SDS011;21086;44.780;17.194;2023-07-09T11:35:50;3.42;;;2.08;;
34876;SDS011;21086;44.780;17.194;2023-07-09T11:38:45;3.28;;;2.35;;
34876;SDS011;21086;44.780;17.194;2023-07-09T11:41:25;5.57;;;1.90;;
34876;SDS011;21086;44.780;17.194;2023-07-09T11:44:04;3.00;;;2.05;;
34876;SDS011;21086;44.780;17.194;2023-07-09T11:46:36;2.85;;;2.25;;
34876;SDS011;21086;44.780;17.194;2023-07-09T11:49:21;3.83;;;2.70;;
34876;SDS011;21086;44.780;17.194;2023-07-09T11:51:54;5.72;;;2.25;;
34876;SDS011;21086;44.780;17.194;2023-07-09T11:54:25;2.40;;;2.00;;
34876;SDS011;21086;44.780;17.194;2023-07-09T11:56:53;5.38;;;2.30;;
34876;SDS011;21086;44.780;17.194;2023-07-09T11:59:21;5.97;;;2.03;;
34876;SDS011;21086;44.780;17.194;2023-07-09T12:01:49;4.20;;;2.53;;
34876;SDS011;21086;44.780;17.194;2023-07-09T12:04:30;3.28;;;2.38;;
34876;SDS011;21086;44.780;17.194;2023-07-09T12:07:00;5.20;;;2.65;;
34876;SDS011;21086;44.780;17.194;2023-07-09T12:09:30;4.43;;;2.35;;
34876;SDS011;21086;44.780;17.194;2023-07-09T12:11:59;2.80;;;1.95;;
34876;SDS011;21086;44.780;17.194;2023-07-09T12:14:26;3.35;;;2.22;;
34876;SDS011;21086;44.780;17.194;2023-07-09T12:16:53;2.38;;;1.95;;
34876;SDS011;21086;44.780;17.194;2023-07-09T12:19:22;7.45;;;2.38;;
34876;SDS011;21086;44.780;17.194;2023-07-09T12:21:53;2.72;;;2.25;;
34876;SDS011;21086;44.780;17.194;2023-07-09T12:24:24;3.05;;;2.13;;
34876;SDS011;21086;44.780;17.194;2023-07-09T12:26:55;3.15;;;2.20;;
34876;SDS011;21086;44.780;17.194;2023-07-09T12:29:27;5.57;;;2.30;;
34876;SDS011;21086;44.780;17.194;2023-07-09T12:31:56;3.20;;;1.83;;
34876;SDS011;21086;44.780;17.194;2023-07-09T12:34:25;3.50;;;2.17;;
34876;SDS011;21086;44.780;17.194;2023-07-09T12:36:52;2.78;;;2.25;;
34876;SDS011;21086;44.780;17.194;2023-07-09T12:39:23;3.42;;;1.90;;
34876;SDS011;21086;44.780;17.194;2023-07-09T12:41:55;6.65;;;1.95;;
34876;SDS011;21086;44.780;17.194;2023-07-09T12:44:25;4.10;;;2.63;;
34876;SDS011;21086;44.780;17.194;2023-07-09T12:46:54;2.85;;;1.90;;
34876;SDS011;21086;44.780;17.194;2023-07-09T12:49:23;2.17;;;1.80;;
34876;SDS011;21086;44.780;17.194;2023-07-09T12:52:01;5.90;;;2.35;;
34876;SDS011;21086;44.780;17.194;2023-07-09T12:54:30;4.53;;;2.33;;
34876;SDS011;21086;44.780;17.194;2023-07-09T12:56:58;3.70;;;1.92;;
34876;SDS011;21086;44.780;17.194;2023-07-09T12:59:37;2.60;;;2.08;;
34876;SDS011;21086;44.780;17.194;2023-07-09T13:04:46;5.00;;;2.00;;
34876;SDS011;21086;44.780;17.194;2023-07-09T13:07:25;6.93;;;1.70;;
34876;SDS011;21086;44.780;17.194;2023-07-09T13:09:56;3.30;;;1.88;;
34876;SDS011;21086;44.780;17.194;2023-07-09T13:12:28;2.65;;;1.98;;
34876;SDS011;21086;44.780;17.194;2023-07-09T13:14:57;3.22;;;2.40;;
34876;SDS011;21086;44.780;17.194;2023-07-09T13:17:30;2.30;;;1.83;;
34876;SDS011;21086;44.780;17.194;2023-07-09T13:19:58;7.03;;;2.10;;
34876;SDS011;21086;44.780;17.194;2023-07-09T13:22:27;2.58;;;2.08;;
34876;SDS011;21086;44.780;17.194;2023-07-09T13:24:55;2.65;;;2.00;;
34876;SDS011;21086;44.780;17.194;2023-07-09T13:27:22;4.78;;;1.90;;
34876;SDS011;21086;44.780;17.194;2023-07-09T13:29:50;3.60;;;1.90;;
34876;SDS011;21086;44.780;17.194;2023-07-09T13:32:18;3.92;;;1.90;;
34876;SDS011;21086;44.780;17.194;2023-07-09T13:34:45;2.15;;;1.80;;
34876;SDS011;21086;44.780;17.194;2023-07-09T13:37:13;4.95;;;1.83;;
34876;SDS011;21086;44.780;17.194;2023-07-09T13:39:42;2.78;;;1.65;;
34876;SDS011;21086;44.780;17.194;2023-07-09T13:42:12;5.63;;;1.77;;
34876;SDS011;21086;44.780;17.194;2023-07-09T13:44:41;4.70;;;1.65;;
34876;SDS011;21086;44.780;17.194;2023-07-09T13:47:13;3.42;;;1.60;;
34876;SDS011;21086;44.780;17.194;2023-07-09T13:49:43;2.60;;;1.95;;
34876;SDS011;21086;44.780;17.194;2023-07-09T13:52:15;3.03;;;1.88;;
34876;SDS011;21086;44.780;17.194;2023-07-09T13:54:49;3.83;;;1.50;;
34876;SDS011;21086;44.780;17.194;2023-07-09T13:57:18;2.05;;;1.65;;
34876;SDS011;21086;44.780;17.194;2023-07-09T13:59:48;3.20;;;1.73;;
34876;SDS011;21086;44.780;17.194;2023-07-09T14:02:29;3.10;;;1.40;;
34876;SDS011;21086;44.780;17.194;2023-07-09T14:05:01;1.70;;;1.45;;
34876;SDS011;21086;44.780;17.194;2023-07-09T14:07:31;2.65;;;1.88;;
34876;SDS011;21086;44.780;17.194;2023-07-09T14:10:00;2.35;;;1.40;;
34876;SDS011;21086;44.780;17.194;2023-07-09T14:12:28;5.25;;;2.08;;
34876;SDS011;21086;44.780;17.194;2023-07-09T14:14:57;1.92;;;1.50;;
34876;SDS011;21086;44.780;17.194;2023-07-09T14:17:26;1.70;;;1.40;;
34876;SDS011;21086;44.780;17.194;2023-07-09T14:19:54;1.92;;;1.50;;
34876;SDS011;21086;44.780;17.194;2023-07-09T14:24:57;7.57;;;1.80;;
34876;SDS011;21086;44.780;17.194;2023-07-09T14:27:29;1.83;;;1.55;;
34876;SDS011;21086;44.780;17.194;2023-07-09T14:29:57;2.20;;;1.25;;
34876;SDS011;21086;44.780;17.194;2023-07-09T14:32:38;1.90;;;1.58;;
34876;SDS011;21086;44.780;17.194;2023-07-09T14:35:16;2.38;;;1.40;;
34876;SDS011;21086;44.780;17.194;2023-07-09T14:37:46;2.17;;;1.40;;
34876;SDS011;21086;44.780;17.194;2023-07-09T14:40:15;4.32;;;1.52;;
34876;SDS011;21086;44.780;17.194;2023-07-09T14:42:44;3.40;;;1.48;;
34876;SDS011;21086;44.780;17.194;2023-07-09T14:45:29;5.38;;;1.70;;
34876;SDS011;21086;44.780;17.194;2023-07-09T14:47:58;5.03;;;1.38;;
34876;SDS011;21086;44.780;17.194;2023-07-09T14:50:25;2.80;;;1.60;;
34876;SDS011;21086;44.780;17.194;2023-07-09T14:52:52;4.32;;;1.48;;
34876;SDS011;21086;44.780;17.194;2023-07-09T14:55:20;1.50;;;1.40;;
34876;SDS011;21086;44.780;17.194;2023-07-09T14:57:51;3.35;;;1.45;;
34876;SDS011;21086;44.780;17.194;2023-07-09T15:00:19;1.95;;;1.50;;
34876;SDS011;21086;44.780;17.194;2023-07-09T15:02:49;2.20;;;1.67;;
34876;SDS011;21086;44.780;17.194;2023-07-09T15:05:19;2.13;;;1.52;;
34876;SDS011;21086;44.780;17.194;2023-07-09T15:07:49;2.45;;;1.65;;
34876;SDS011;21086;44.780;17.194;2023-07-09T15:10:18;1.60;;;1.50;;
34876;SDS011;21086;44.780;17.194;2023-07-09T15:12:53;1.55;;;1.35;;
34876;SDS011;21086;44.780;17.194;2023-07-09T15:15:28;2.15;;;1.35;;
34876;SDS011;21086;44.780;17.194;2023-07-09T15:17:59;1.65;;;1.45;;
34876;SDS011;21086;44.780;17.194;2023-07-09T15:20:35;2.72;;;1.52;;
34876;SDS011;21086;44.780;17.194;2023-07-09T15:23:02;2.40;;;1.70;;
34876;SDS011;21086;44.780;17.194;2023-07-09T15:25:30;2.22;;;1.40;;
34876;SDS011;21086;44.780;17.194;2023-07-09T15:27:57;3.00;;;1.55;;
34876;SDS011;21086;44.780;17.194;2023-07-09T15:30:25;2.10;;;1.80;;